Time;durP1;ratioP1;P1;durP2;ratioP2;P2;SDS_P1;SDS_P2;PMS_P1;PMS_P2;Temp;Humidity;BMP_temperature;BMP_pressure;BME280_temperature;BME280_humidity;BME280_pressure;Samples;Min_cycle;Max_cycle;Signal;HPM_P1;HPM_P2
2022/02/06 00:01:23;;;;;;;6.53;1.97;;;9.00;99.90;;;;;;6159449;23;20272;-92
2022/02/06 00:03:49;;;;;;;3.40;1.47;;;9.00;99.90;;;;;;6185769;23;20166;-92
2022/02/06 00:06:14;;;;;;;2.73;1.90;;;9.00;99.90;;;;;;6162854;23;20162;-92
2022/02/06 00:08:40;;;;;;;14.73;2.70;;;9.00;99.90;;;;;;6137277;23;20209;-92
2022/02/06 00:11:06;;;;;;;6.73;2.23;;;9.00;99.90;;;;;;6166746;23;20258;-92
2022/02/06 00:13:33;;;;;;;3.00;1.03;;;9.00;99.90;;;;;;6161114;23;20194;-93
2022/02/06 00:15:59;;;;;;;5.10;1.50;;;9.00;99.90;;;;;;6190826;23;20591;-93
2022/02/06 00:18:24;;;;;;;2.73;1.03;;;9.00;99.90;;;;;;6167562;23;20193;-92
2022/02/06 00:20:54;;;;;;;1.83;1.10;;;9.00;99.90;;;;;;6161529;23;20224;-92
2022/02/06 00:23:24;;;;;;;3.47;1.73;;;9.00;99.90;;;;;;6186357;23;20202;-94
2022/02/06 00:25:57;;;;;;;1.57;1.47;;;9.00;99.90;;;;;;6191978;23;20201;-93
2022/02/06 00:33:39;;;;;;;11.10;2.33;;;9.10;99.90;;;;;;6162762;23;20166;-93
2022/02/06 00:39:04;;;;;;;5.97;2.63;;;9.00;99.90;;;;;;6219231;23;20197;-93
2022/02/06 00:41:30;;;;;;;0.73;0.67;;;9.10;99.90;;;;;;6166019;23;20247;-93
2022/02/06 00:43:56;;;;;;;3.57;0.77;;;9.10;99.90;;;;;;6202397;23;20635;-93
2022/02/06 00:46:23;;;;;;;1.27;1.10;;;9.10;99.90;;;;;;6216202;23;20280;-92
2022/02/06 00:49:01;;;;;;;5.07;0.90;;;9.10;99.90;;;;;;6167526;23;20599;-93
2022/02/06 00:51:44;;;;;;;3.97;1.77;;;9.10;99.90;;;;;;6195474;23;20149;-93
2022/02/06 00:54:09;;;;;;;5.20;2.07;;;9.10;99.90;;;;;;6195229;23;20538;-93
2022/02/06 00:56:39;;;;;;;0.80;0.60;;;9.10;99.90;;;;;;6162071;23;20194;-93
2022/02/06 00:59:05;;;;;;;3.10;1.67;;;9.20;99.90;;;;;;6204755;23;20288;-93
2022/02/06 01:01:31;;;;;;;4.93;1.67;;;9.20;99.90;;;;;;6166425;23;20678;-93
2022/02/06 01:03:56;;;;;;;8.67;2.23;;;9.20;99.90;;;;;;6192261;22;20169;-93
2022/02/06 01:06:22;;;;;;;5.40;2.47;;;9.20;99.90;;;;;;6167342;23;20185;-93
2022/02/06 01:08:49;;;;;;;1.27;0.73;;;9.20;99.90;;;;;;6186411;23;20190;-92
2022/02/06 01:11:15;;;;;;;5.70;2.10;;;9.20;99.90;;;;;;6216270;23;20256;-92
2022/02/06 01:13:53;;;;;;;2.20;1.43;;;9.20;99.90;;;;;;6216363;23;20201;-93
2022/02/06 01:16:28;;;;;;;1.67;1.57;;;9.20;99.90;;;;;;6184758;23;20200;-94
2022/02/06 01:18:59;;;;;;;6.80;2.37;;;9.20;99.90;;;;;;6189396;23;20168;-93
2022/02/06 01:24:23;;;;;;;12.10;2.27;;;9.20;99.90;;;;;;6198890;23;20185;-93
2022/02/06 01:26:54;;;;;;;12.13;2.53;;;9.30;99.90;;;;;;6193554;23;20272;-92
2022/02/06 01:32:06;;;;;;;12.50;2.50;;;9.30;99.90;;;;;;6186908;23;20201;-92
2022/02/06 01:34:58;;;;;;;1.27;0.80;;;9.30;99.90;;;;;;6185807;23;20896;-92
2022/02/06 01:42:25;;;;;;;4.23;1.50;;;9.40;99.90;;;;;;6187254;23;20154;-94
2022/02/06 01:45:08;;;;;;;4.07;1.80;;;9.40;99.90;;;;;;6185278;23;20663;-92
2022/02/06 02:01:35;;;;;;;1.80;0.70;;;9.40;99.90;;;;;;6241901;23;20563;-92
2022/02/06 02:12:08;;;;;;;1.90;1.53;;;9.40;99.90;;;;;;6210168;23;20194;-93
2022/02/06 02:48:02;;;;;;;3.10;0.77;;;9.30;99.90;;;;;;6211156;23;20233;-93
2022/02/06 02:50:30;;;;;;;3.90;1.43;;;9.30;99.90;;;;;;6160584;23;20545;-92
2022/02/06 03:00:51;;;;;;;3.60;1.50;;;9.30;99.90;;;;;;6187846;23;20513;-93
2022/02/06 03:03:29;;;;;;;4.27;1.37;;;9.30;99.90;;;;;;6186500;23;20182;-93
2022/02/06 03:05:57;;;;;;;7.83;1.73;;;9.30;99.90;;;;;;6214615;23;20197;-93
2022/02/06 03:08:23;;;;;;;4.03;1.13;;;9.30;99.90;;;;;;6216475;23;20209;-93
2022/02/06 03:10:51;;;;;;;1.13;1.03;;;9.30;99.90;;;;;;6178026;23;20198;-93
2022/02/06 03:13:20;;;;;;;2.17;1.60;;;9.30;99.90;;;;;;6218558;23;20212;-93
2022/02/06 03:15:52;;;;;;;7.80;1.37;;;9.30;99.90;;;;;;6168525;23;20188;-93
2022/02/06 03:18:21;;;;;;;2.17;1.47;;;9.30;99.90;;;;;;6170620;23;20204;-92
2022/02/06 03:20:48;;;;;;;2.63;1.70;;;9.30;99.90;;;;;;6161727;23;20260;-92
2022/02/06 03:23:15;;;;;;;9.03;4.53;;;9.30;99.90;;;;;;6190142;23;20192;-92
2022/02/06 03:25:53;;;;;;;5.30;1.03;;;9.30;99.90;;;;;;6178029;23;20276;-92
2022/02/06 03:28:20;;;;;;;1.80;0.57;;;9.30;99.90;;;;;;6170164;23;20211;-91
2022/02/06 03:30:46;;;;;;;6.70;1.27;;;9.30;99.90;;;;;;6216080;23;20157;-91
2022/02/06 03:33:12;;;;;;;6.23;1.53;;;9.30;99.90;;;;;;6218153;23;20160;-93
2022/02/06 03:35:39;;;;;;;4.40;1.60;;;9.30;99.90;;;;;;6167642;23;20201;-94
2022/02/06 03:38:05;;;;;;;0.57;0.57;;;9.30;99.90;;;;;;6170044;23;20259;-92
2022/02/06 03:40:38;;;;;;;0.73;0.73;;;9.30;99.90;;;;;;6180426;23;20213;-94
2022/02/06 03:45:43;;;;;;;1.60;0.70;;;9.30;99.90;;;;;;6192324;23;20682;-94
2022/02/06 03:48:26;;;;;;;2.53;1.03;;;9.30;99.90;;;;;;6195052;23;20196;-94
2022/02/06 03:50:54;;;;;;;9.53;1.03;;;9.30;99.90;;;;;;6195401;23;20212;-93
2022/02/06 03:53:24;;;;;;;1.13;0.97;;;9.40;99.90;;;;;;6167446;23;20227;-93
2022/02/06 03:55:51;;;;;;;3.73;1.60;;;9.40;99.90;;;;;;6215011;23;20197;-92
2022/02/06 03:58:17;;;;;;;4.53;1.63;;;9.40;99.90;;;;;;6190534;23;20204;-92
2022/02/06 04:11:31;;;;;;;7.37;2.27;;;9.40;99.90;;;;;;4931641;27;4211400;-93
2022/02/06 04:14:20;;;;;;;0.70;0.70;;;9.40;99.90;;;;;;5085094;27;20497;-94
2022/02/06 04:16:54;;;;;;;11.80;1.00;;;9.40;99.90;;;;;;5093277;27;20211;-93
2022/02/06 04:19:26;;;;;;;2.10;1.30;;;9.40;99.90;;;;;;5085867;28;20235;-93
2022/02/06 04:21:57;;;;;;;1.60;1.30;;;9.40;99.90;;;;;;5093588;28;20237;-89
2022/02/06 04:24:24;;;;;;;0.30;0.30;;;9.40;99.90;;;;;;5113087;27;20184;-92
2022/02/06 04:26:53;;;;;;;0.67;0.67;;;9.40;99.90;;;;;;5094171;28;20212;-94
2022/02/06 04:29:19;;;;;;;3.90;0.63;;;9.30;99.90;;;;;;5096322;28;20211;-92
2022/02/06 04:31:48;;;;;;;1.63;1.40;;;9.30;99.90;;;;;;5096382;28;20200;-92
2022/02/06 04:34:21;;;;;;;1.90;1.23;;;9.40;99.90;;;;;;5097957;28;20200;-94
2022/02/06 04:42:18;;;;;;;1.10;0.50;;;9.40;99.90;;;;;;5097647;28;20353;-96
2022/02/06 04:45:09;;;;;;;1.50;1.50;;;9.30;99.90;;;;;;5096292;27;20230;-92
2022/02/06 05:12:28;;;;;;;1.03;1.03;;;9.40;99.90;;;;;;5084420;28;20236;-92
2022/02/06 05:24:58;;;;;;;1.90;1.27;;;9.40;99.90;;;;;;5078898;28;20331;-93
2022/02/06 05:27:47;;;;;;;14.83;2.70;;;9.40;99.90;;;;;;5080298;28;20276;-93
2022/02/06 05:30:17;;;;;;;8.73;1.03;;;9.40;99.90;;;;;;5060983;28;20220;-94
2022/02/06 05:35:23;;;;;;;7.10;1.90;;;9.40;99.90;;;;;;5069755;28;20312;-95
2022/02/06 05:37:52;;;;;;;0.67;0.67;;;9.40;99.90;;;;;;5071030;28;20225;-94
2022/02/06 05:40:18;;;;;;;2.70;0.63;;;9.40;99.90;;;;;;5068629;28;20225;-92
2022/02/06 05:42:45;;;;;;;5.47;1.87;;;9.40;99.90;;;;;;5068953;28;20202;-92
2022/02/06 05:45:11;;;;;;;6.83;2.20;;;9.40;99.90;;;;;;5067482;28;20190;-92
2022/02/06 05:47:38;;;;;;;1.20;0.63;;;9.40;99.90;;;;;;5066187;28;20209;-93
2022/02/06 05:50:04;;;;;;;3.60;1.37;;;9.40;99.90;;;;;;5057206;28;20213;-92
2022/02/06 05:52:32;;;;;;;1.23;0.87;;;9.40;99.90;;;;;;5071773;28;20209;-91
2022/02/06 05:54:58;;;;;;;1.40;1.00;;;9.40;99.90;;;;;;5077542;28;20188;-93
2022/02/06 05:57:27;;;;;;;0.30;0.30;;;9.40;99.90;;;;;;5095383;28;20193;-92
2022/02/06 05:59:53;;;;;;;5.97;0.87;;;9.40;99.90;;;;;;5077171;28;20226;-94
2022/02/06 06:02:18;;;;;;;1.63;0.70;;;9.40;99.90;;;;;;5078392;28;20221;-94
2022/02/06 06:04:44;;;;;;;0.30;0.30;;;9.40;99.90;;;;;;5077575;28;20580;-92
2022/02/06 06:07:10;;;;;;;14.10;1.50;;;9.40;99.90;;;;;;5076761;28;20569;-93
2022/02/06 06:09:38;;;;;;;1.27;0.73;;;9.40;99.90;;;;;;5074275;28;20354;-93
2022/02/06 06:12:08;;;;;;;2.10;1.60;;;9.40;99.90;;;;;;5076923;28;20299;-92
2022/02/06 06:14:34;;;;;;;4.63;1.07;;;9.50;99.90;;;;;;5075285;28;20303;-92
2022/02/06 06:17:00;;;;;;;0.90;0.90;;;9.40;99.90;;;;;;5078279;28;20211;-93
2022/02/06 06:19:26;;;;;;;0.33;0.23;;;9.50;99.90;;;;;;5079223;28;20228;-91
2022/02/06 06:21:56;;;;;;;6.40;1.67;;;9.50;99.90;;;;;;5080877;27;20654;-94
2022/02/06 06:24:25;;;;;;;1.23;1.10;;;9.50;99.90;;;;;;5082652;28;20628;-93
2022/02/06 06:26:54;;;;;;;4.60;1.00;;;9.50;99.90;;;;;;5083388;28;20226;-94
2022/02/06 06:29:20;;;;;;;8.57;1.30;;;9.50;99.90;;;;;;5080711;28;20209;-93
2022/02/06 06:31:56;;;;;;;2.53;1.33;;;9.50;99.90;;;;;;5080909;28;20270;-95
2022/02/06 06:34:22;;;;;;;3.70;2.00;;;9.50;99.90;;;;;;5083287;28;20428;-93
2022/02/06 06:36:49;;;;;;;6.93;1.10;;;9.50;99.90;;;;;;5086482;28;20181;-95
2022/02/06 06:39:22;;;;;;;1.77;0.30;;;9.50;99.90;;;;;;5084865;28;20246;-92
2022/02/06 06:41:49;;;;;;;1.53;1.33;;;9.50;99.90;;;;;;5083021;28;20216;-92
2022/02/06 06:44:15;;;;;;;6.27;1.23;;;9.50;99.90;;;;;;5080289;28;20212;-94
2022/02/06 06:46:43;;;;;;;7.57;1.17;;;9.50;99.90;;;;;;5079820;28;20213;-95
2022/02/06 06:49:11;;;;;;;1.80;1.27;;;9.50;99.90;;;;;;5077329;28;20691;-91
2022/02/06 06:51:37;;;;;;;6.43;1.13;;;9.50;99.90;;;;;;5075733;28;20172;-91
2022/02/06 06:54:07;;;;;;;8.00;1.37;;;9.50;99.90;;;;;;5075111;28;20221;-93
2022/02/06 06:56:43;;;;;;;5.67;1.73;;;9.50;99.90;;;;;;5075700;28;20711;-91
2022/02/06 06:59:26;;;;;;;0.77;0.60;;;9.50;99.90;;;;;;5076087;28;20243;-93
2022/02/06 07:02:04;;;;;;;1.43;0.97;;;9.60;99.90;;;;;;5076848;28;20312;-93
2022/02/06 07:04:30;;;;;;;1.23;0.87;;;9.50;99.90;;;;;;5074389;28;20672;-91
2022/02/06 07:06:56;;;;;;;2.20;0.93;;;9.50;99.90;;;;;;5075181;28;20192;-92
2022/02/06 07:09:23;;;;;;;0.50;0.50;;;9.50;99.90;;;;;;5069328;28;20197;-93
2022/02/06 07:11:49;;;;;;;0.70;0.70;;;9.40;99.90;;;;;;5073289;28;20232;-93
2022/02/06 07:14:15;;;;;;;2.00;1.37;;;9.40;99.90;;;;;;5077453;28;20227;-93
2022/02/06 07:16:41;;;;;;;3.00;1.47;;;9.40;99.90;;;;;;5068404;28;20217;-95
2022/02/06 07:19:06;;;;;;;2.33;2.07;;;9.40;99.90;;;;;;5075189;28;20786;-93
2022/02/06 07:21:38;;;;;;;2.70;0.80;;;9.40;99.90;;;;;;5076503;28;20182;-92
2022/02/06 07:24:04;;;;;;;3.00;1.23;;;9.40;99.90;;;;;;5082008;28;20227;-92
2022/02/06 07:26:36;;;;;;;1.27;0.53;;;9.40;99.90;;;;;;5078550;28;20486;-92
2022/02/06 07:29:02;;;;;;;6.33;0.77;;;9.40;99.90;;;;;;5079518;28;20243;-95
2022/02/06 07:31:33;;;;;;;5.40;0.63;;;9.40;99.90;;;;;;5079998;28;20257;-94
2022/02/06 07:33:59;;;;;;;0.47;0.40;;;9.40;99.90;;;;;;5084296;28;20632;-94
2022/02/06 07:36:25;;;;;;;8.00;0.83;;;9.40;99.90;;;;;;5087011;28;20214;-93
2022/02/06 07:38:50;;;;;;;0.83;0.83;;;9.40;99.90;;;;;;5084906;28;20251;-92
2022/02/06 07:41:16;;;;;;;0.30;0.23;;;9.50;99.90;;;;;;5098239;28;20254;-89
2022/02/06 07:43:44;;;;;;;0.30;0.30;;;9.50;99.90;;;;;;5089021;28;20204;-93
2022/02/06 07:46:13;;;;;;;0.43;0.43;;;9.50;99.90;;;;;;5071692;28;20213;-91
2022/02/06 07:48:39;;;;;;;1.37;1.27;;;9.50;99.90;;;;;;5074729;28;20619;-93
2022/02/06 07:51:05;;;;;;;7.10;4.00;;;9.50;99.90;;;;;;5074737;28;20602;-93
2022/02/06 07:53:31;;;;;;;0.50;0.50;;;9.50;99.90;;;;;;5074191;28;20221;-92
2022/02/06 07:56:00;;;;;;;4.60;1.10;;;9.50;99.90;;;;;;5058315;28;20228;-94
2022/02/06 07:58:26;;;;;;;2.20;1.00;;;9.50;99.90;;;;;;5078520;28;20292;-95
2022/02/06 08:00:57;;;;;;;1.93;1.00;;;9.50;99.90;;;;;;5074800;28;20651;-93
2022/02/06 08:03:24;;;;;;;7.83;0.57;;;9.60;99.90;;;;;;5075609;28;20468;-92
2022/02/06 08:05:51;;;;;;;2.67;1.03;;;9.60;99.90;;;;;;5074254;28;20220;-91
2022/02/06 08:08:17;;;;;;;6.50;1.63;;;9.60;99.90;;;;;;5071930;28;20220;-88
2022/02/06 08:10:43;;;;;;;6.13;0.87;;;9.60;99.90;;;;;;5076069;28;20287;-89
2022/02/06 08:13:22;;;;;;;2.23;1.57;;;9.60;99.90;;;;;;5055957;28;20721;-90
2022/02/06 08:15:48;;;;;;;0.87;0.20;;;9.60;99.90;;;;;;5039637;28;20189;-92
2022/02/06 08:18:19;;;;;;;3.40;0.70;;;9.60;99.90;;;;;;5076217;28;20196;-93
2022/02/06 08:20:45;;;;;;;19.20;1.47;;;9.60;99.90;;;;;;5077370;28;20579;-90
2022/02/06 08:23:11;;;;;;;8.43;1.73;;;9.60;99.90;;;;;;5070775;28;20221;-94
2022/02/06 08:25:37;;;;;;;7.00;2.03;;;9.60;99.90;;;;;;5075330;28;20212;-93
2022/02/06 08:28:03;;;;;;;0.50;0.50;;;9.50;99.90;;;;;;5072208;28;20209;-91
2022/02/06 08:30:30;;;;;;;15.57;1.23;;;9.60;99.90;;;;;;5073885;28;20318;-93
2022/02/06 08:32:59;;;;;;;2.87;1.63;;;9.60;99.90;;;;;;5072088;28;20684;-92
2022/02/06 08:35:25;;;;;;;7.30;0.80;;;9.60;99.90;;;;;;5075718;28;20278;-93
2022/02/06 08:37:51;;;;;;;4.97;1.93;;;9.60;99.90;;;;;;5072603;28;20619;-86
2022/02/06 08:40:17;;;;;;;3.77;0.97;;;9.60;99.90;;;;;;5075224;28;20233;-92
2022/02/06 08:42:44;;;;;;;5.13;2.03;;;9.60;99.90;;;;;;5065879;28;20629;-92
2022/02/06 08:45:15;;;;;;;2.13;1.03;;;9.60;99.90;;;;;;5076026;28;20192;-92
2022/02/06 08:47:43;;;;;;;0.40;0.40;;;9.60;99.90;;;;;;5076924;28;20206;-91
2022/02/06 08:50:13;;;;;;;1.43;1.20;;;9.50;99.90;;;;;;5078342;28;20221;-91
2022/02/06 08:52:39;;;;;;;1.27;0.80;;;9.60;99.90;;;;;;5081112;28;20323;-94
2022/02/06 08:55:08;;;;;;;3.20;1.17;;;9.60;99.90;;;;;;5078230;28;20227;-93
2022/02/06 08:57:36;;;;;;;6.93;1.37;;;9.60;99.90;;;;;;5077926;28;20178;-93
2022/02/06 09:00:04;;;;;;;8.40;1.57;;;9.60;99.90;;;;;;5079645;28;20236;-94
2022/02/06 09:02:30;;;;;;;4.80;1.07;;;9.60;99.90;;;;;;5078140;28;20656;-93
2022/02/06 09:04:56;;;;;;;8.50;1.27;;;9.60;99.90;;;;;;5077864;28;20325;-93
2022/02/06 09:07:25;;;;;;;1.70;0.83;;;9.60;99.90;;;;;;5080495;28;20249;-91
2022/02/06 09:09:56;;;;;;;1.77;1.20;;;9.60;99.90;;;;;;5077634;28;20740;-93
2022/02/06 09:12:22;;;;;;;0.83;0.83;;;9.60;99.90;;;;;;5077083;28;20278;-94
2022/02/06 09:14:49;;;;;;;2.93;0.83;;;9.60;99.90;;;;;;5077362;28;20374;-91
2022/02/06 09:17:25;;;;;;;5.13;1.57;;;9.60;99.90;;;;;;5070102;28;20217;-93
2022/02/06 09:19:53;;;;;;;14.00;1.17;;;9.60;99.90;;;;;;5046432;28;20339;-93
2022/02/06 09:22:19;;;;;;;7.27;2.33;;;9.70;99.90;;;;;;5058099;28;20304;-93
2022/02/06 09:24:45;;;;;;;4.37;1.20;;;9.70;99.90;;;;;;5075614;28;20389;-89
2022/02/06 09:27:12;;;;;;;1.57;0.33;;;9.70;99.90;;;;;;5081829;28;20209;-92
2022/02/06 09:29:40;;;;;;;0.97;0.60;;;9.70;99.90;;;;;;5076723;28;20216;-90
2022/02/06 09:37:07;;;;;;;0.10;0.10;;;8.40;99.90;;;;;;5080242;28;21295;-92
2022/02/06 09:39:42;;;;;;;1.30;0.57;;;8.40;99.90;;;;;;5080578;28;20216;-91
2022/02/06 09:42:09;;;;;;;0.17;0.17;;;8.30;99.90;;;;;;5081250;28;20212;-92
2022/02/06 09:44:36;;;;;;;0.30;0.30;;;8.20;99.90;;;;;;5079807;28;20209;-92
2022/02/06 09:47:03;;;;;;;0.20;0.20;;;8.20;99.90;;;;;;5085885;28;20581;-91
2022/02/06 09:49:31;;;;;;;0.70;0.40;;;8.10;99.90;;;;;;5094912;28;20213;-91
2022/02/06 09:51:58;;;;;;;1.57;0.87;;;8.00;99.90;;;;;;5091243;28;20303;-94
2022/02/06 09:54:25;;;;;;;0.77;0.77;;;8.00;99.90;;;;;;5067730;28;20189;-92
2022/02/06 09:56:55;;;;;;;0.10;0.10;;;8.00;99.90;;;;;;5077706;28;20205;-92
2022/02/06 09:59:23;;;;;;;0.97;0.83;;;8.00;99.90;;;;;;5079642;28;20237;-93
2022/02/06 10:01:51;;;;;;;0.53;0.40;;;8.00;99.90;;;;;;5075997;28;20220;-92
2022/02/06 10:04:26;;;;;;;0.40;0.33;;;7.90;99.90;;;;;;5077772;28;20216;-91
2022/02/06 10:07:11;;;;;;;2.00;1.43;;;7.90;99.90;;;;;;5073687;28;20188;-90
2022/02/06 10:09:55;;;;;;;0.70;0.70;;;7.90;99.90;;;;;;5077889;28;20189;-92
2022/02/06 10:12:23;;;;;;;0.30;0.30;;;7.90;99.90;;;;;;5076430;28;20251;-90
2022/02/06 10:14:49;;;;;;;3.33;0.40;;;7.90;99.90;;;;;;5075723;28;20261;-90
2022/02/06 10:17:17;;;;;;;0.83;0.83;;;7.90;99.90;;;;;;5075982;28;20588;-92
2022/02/06 10:20:13;;;;;;;0.13;0.13;;;7.80;99.90;;;;;;5067499;28;20233;-91
2022/02/06 10:22:47;;;;;;;0.10;0.10;;;7.90;99.90;;;;;;5074233;28;20227;-89
2022/02/06 10:25:12;;;;;;;2.53;1.13;;;7.70;99.90;;;;;;5093692;27;20211;-90
2022/02/06 10:27:59;;;;;;;0.20;0.20;;;7.70;99.90;;;;;;5067973;28;20196;-90
2022/02/06 10:30:42;;;;;;;0.30;0.30;;;7.60;99.90;;;;;;5075637;28;20224;-89
2022/02/06 10:33:16;;;;;;;0.77;0.60;;;7.50;99.90;;;;;;5056354;28;20731;-92
2022/02/06 10:35:51;;;;;;;0.33;0.33;;;7.70;99.90;;;;;;5058735;28;20219;-92
2022/02/06 10:38:24;;;;;;;0.90;0.90;;;7.60;99.90;;;;;;5075206;28;20645;-92
2022/02/06 10:41:18;;;;;;;0.20;0.20;;;7.70;99.90;;;;;;5072439;28;20317;-93
2022/02/06 10:44:06;;;;;;;0.73;0.73;;;7.60;99.90;;;;;;5074642;28;20217;-91
2022/02/06 10:46:42;;;;;;;0.30;0.30;;;7.60;99.90;;;;;;5069443;28;20737;-92
2022/02/06 10:49:13;;;;;;;3.37;0.33;;;7.50;99.90;;;;;;5063984;28;20300;-92
2022/02/06 10:51:45;;;;;;;0.13;0.13;;;7.40;99.90;;;;;;5058100;28;20186;-93
2022/02/06 10:54:14;;;;;;;0.20;0.20;;;7.60;99.90;;;;;;5055242;28;20222;-92
2022/02/06 10:57:12;;;;;;;1.13;0.93;;;7.60;99.90;;;;;;5070090;28;20281;-93
2022/02/06 10:59:53;;;;;;;1.07;0.97;;;7.70;99.90;;;;;;5060438;28;20239;-94
2022/02/06 11:02:28;;;;;;;0.20;0.20;;;7.60;99.90;;;;;;5053187;28;21037;-93
2022/02/06 11:04:58;;;;;;;0.83;0.40;;;7.70;99.90;;;;;;5055825;28;20257;-93
2022/02/06 11:07:25;;;;;;;2.00;0.90;;;7.70;99.90;;;;;;5054558;28;20251;-93
2022/02/06 11:09:53;;;;;;;2.47;0.77;;;7.70;99.90;;;;;;5035686;28;20194;-95
2022/02/06 11:12:21;;;;;;;0.23;0.23;;;7.80;99.90;;;;;;5042376;28;20711;-94
2022/02/06 11:14:52;;;;;;;0.23;0.23;;;7.80;99.90;;;;;;5038236;28;20230;-93
2022/02/06 11:17:24;;;;;;;0.57;0.57;;;7.80;99.90;;;;;;5036512;28;20222;-94
2022/02/06 11:20:06;;;;;;;0.27;0.27;;;7.80;99.90;;;;;;5043730;28;20324;-94
2022/02/06 11:23:01;;;;;;;0.13;0.13;;;7.80;99.90;;;;;;5041210;28;20221;-94
2022/02/06 11:25:36;;;;;;;0.50;0.50;;;7.90;99.90;;;;;;5043370;28;20584;-95
2022/02/06 11:28:04;;;;;;;0.20;0.20;;;7.90;99.90;;;;;;5040252;28;22788;-93
2022/02/06 11:30:33;;;;;;;0.57;0.57;;;7.90;99.90;;;;;;5046449;28;20195;-94
2022/02/06 11:32:59;;;;;;;0.53;0.53;;;7.90;99.90;;;;;;5048612;28;20274;-94
2022/02/06 11:35:28;;;;;;;1.90;0.50;;;7.90;99.90;;;;;;5051949;28;20241;-95
2022/02/06 11:43:43;;;;;;;0.50;0.50;;;8.00;99.90;;;;;;5044925;28;20384;-95
2022/02/06 11:44:28;;;;;;;0.93;0.40;;;8.00;99.90;;;;;;5037350;28;20562;-94
2022/02/06 11:47:18;;;;;;;0.10;0.10;;;8.00;99.90;;;;;;5042263;28;20248;-94
2022/02/06 11:49:48;;;;;;;0.40;0.40;;;8.10;99.90;;;;;;5039563;28;20222;-95
2022/02/06 11:52:15;;;;;;;6.13;0.60;;;8.10;99.90;;;;;;5034296;28;20190;-93
2022/02/06 11:54:57;;;;;;;0.57;0.57;;;8.20;99.90;;;;;;5040308;28;20557;-95
2022/02/06 11:57:26;;;;;;;0.27;0.27;;;8.20;99.90;;;;;;5054326;28;20430;-94
2022/02/06 12:00:05;;;;;;;1.80;1.70;;;8.20;99.90;;;;;;5057667;28;20246;-92
2022/02/06 12:02:43;;;;;;;0.67;0.40;;;8.30;99.90;;;;;;5037989;28;20712;-92
2022/02/06 12:05:08;;;;;;;0.87;0.87;;;8.40;99.90;;;;;;5035794;28;20253;-93
2022/02/06 12:07:52;;;;;;;3.90;0.87;;;8.40;99.90;;;;;;5041098;28;20222;-93
2022/02/06 12:10:20;;;;;;;0.93;0.63;;;8.50;99.90;;;;;;5037776;28;21238;-90
2022/02/06 12:12:49;;;;;;;0.73;0.73;;;8.60;99.90;;;;;;5038984;28;20771;-92
2022/02/06 12:15:19;;;;;;;0.37;0.37;;;8.70;99.90;;;;;;5038759;28;20251;-91
2022/02/06 12:18:08;;;;;;;1.40;0.53;;;8.80;99.90;;;;;;5037297;28;20213;-89
2022/02/06 12:20:48;;;;;;;4.53;0.70;;;8.80;99.90;;;;;;5039607;28;20242;-90
2022/02/06 12:23:39;;;;;;;0.63;0.63;;;8.80;99.90;;;;;;5040913;28;20507;-90
2022/02/06 12:26:44;;;;;;;1.07;0.40;;;8.80;99.90;;;;;;5042963;28;20580;-93
2022/02/06 12:29:19;;;;;;;1.03;1.00;;;8.80;99.90;;;;;;5044529;28;20332;-92
2022/02/06 12:31:54;;;;;;;0.30;0.30;;;8.80;99.90;;;;;;5038016;28;20225;-92
2022/02/06 12:37:31;;;;;;;0.23;0.23;;;8.80;99.90;;;;;;5043494;28;20198;-94
2022/02/06 12:40:07;;;;;;;1.07;0.70;;;8.80;99.90;;;;;;5043769;28;20222;-91
2022/02/06 12:42:39;;;;;;;2.30;0.90;;;8.90;99.90;;;;;;5038935;28;20225;-93
2022/02/06 12:45:10;;;;;;;0.23;0.23;;;8.80;99.90;;;;;;5035058;28;20222;-89
2022/02/06 12:47:50;;;;;;;1.03;1.03;;;8.90;99.90;;;;;;5042766;28;20225;-90
2022/02/06 12:50:34;;;;;;;5.83;0.80;;;8.90;99.90;;;;;;5042593;28;20230;-91
2022/02/06 12:53:01;;;;;;;0.20;0.20;;;8.90;99.90;;;;;;5036663;28;20230;-91
2022/02/06 12:55:31;;;;;;;0.47;0.47;;;8.80;99.90;;;;;;5029254;28;20603;-90
2022/02/06 12:57:58;;;;;;;0.60;0.60;;;8.90;99.90;;;;;;5033444;28;20217;-91
2022/02/06 13:00:29;;;;;;;5.83;0.80;;;8.90;99.90;;;;;;5036595;28;20238;-89
2022/02/06 13:03:15;;;;;;;0.10;0.10;;;8.80;99.90;;;;;;5035045;28;20236;-90
2022/02/06 13:05:55;;;;;;;0.20;0.20;;;8.90;99.90;;;;;;5031535;28;20768;-90
2022/02/06 13:08:21;;;;;;;10.57;1.20;;;9.00;99.90;;;;;;5035985;28;20820;-90
2022/02/06 13:10:52;;;;;;;0.17;0.17;;;9.00;99.90;;;;;;5033405;28;20241;-90
2022/02/06 13:13:22;;;;;;;0.57;0.57;;;9.10;99.90;;;;;;5034947;28;20218;-90
2022/02/06 13:16:02;;;;;;;0.50;0.50;;;9.20;99.90;;;;;;5037765;28;20190;-92
2022/02/06 13:18:59;;;;;;;1.00;0.73;;;9.20;99.90;;;;;;5034144;28;20214;-88
2022/02/06 13:25:35;;;;;;;0.20;0.20;;;9.30;99.90;;;;;;5029129;28;20218;-90
2022/02/06 13:32:57;;;;;;;2.83;1.10;;;9.40;99.90;;;;;;5057589;28;20300;-88
2022/02/06 13:35:53;;;;;;;0.20;0.20;;;9.40;99.90;;;;;;5039351;28;20214;-90
2022/02/06 13:38:19;;;;;;;2.37;0.70;;;9.30;99.90;;;;;;5065569;28;20692;-95
2022/02/06 13:40:47;;;;;;;0.43;0.43;;;9.30;99.90;;;;;;5055136;28;20225;-94
2022/02/06 13:43:20;;;;;;;0.30;0.30;;;9.30;99.90;;;;;;5066279;28;20193;-95
2022/02/06 13:45:51;;;;;;;3.30;0.47;;;9.30;99.90;;;;;;5068083;28;20595;-93
2022/02/06 13:48:20;;;;;;;0.30;0.30;;;9.20;99.90;;;;;;5069418;28;20285;-94
2022/02/06 13:50:55;;;;;;;0.60;0.60;;;9.40;99.90;;;;;;5067281;28;20228;-93
2022/02/06 13:53:24;;;;;;;0.40;0.40;;;9.40;99.90;;;;;;5060261;28;20212;-94
2022/02/06 13:56:11;;;;;;;0.40;0.40;;;9.40;99.90;;;;;;5065698;28;20228;-95
2022/02/06 13:59:13;;;;;;;3.43;0.70;;;9.60;99.90;;;;;;5063987;28;20221;-95
2022/02/06 14:01:51;;;;;;;2.47;0.83;;;9.50;99.90;;;;;;5071229;28;20228;-94
2022/02/06 14:04:31;;;;;;;0.33;0.33;;;9.50;99.90;;;;;;5080501;28;20253;-94
2022/02/06 14:07:12;;;;;;;1.33;0.50;;;9.40;99.90;;;;;;5080311;28;20223;-93
2022/02/06 14:12:08;;;;;;;0.60;0.40;;;9.40;99.90;;;;;;5080277;28;20227;-94
2022/02/06 14:14:39;;;;;;;0.50;0.50;;;9.40;99.90;;;;;;5057487;28;20877;-95
2022/02/06 14:17:08;;;;;;;0.47;0.47;;;9.30;99.90;;;;;;5058973;28;20258;-95
2022/02/06 14:19:41;;;;;;;0.83;0.83;;;9.20;99.90;;;;;;5044049;28;20641;-92
2022/02/06 14:22:14;;;;;;;4.13;1.97;;;9.10;99.90;;;;;;5061676;28;20255;-93
2022/02/06 14:24:48;;;;;;;1.77;0.60;;;9.00;99.90;;;;;;5054621;28;20189;-93
2022/02/06 14:27:44;;;;;;;0.47;0.40;;;6.60;99.90;;;;;;5055586;28;20583;-93
2022/02/06 14:30:30;;;;;;;0.30;0.30;;;5.20;99.90;;;;;;5056044;28;20300;-94
2022/02/06 14:33:07;;;;;;;0.30;0.30;;;5.40;99.90;;;;;;5043411;28;20222;-93
2022/02/06 14:35:56;;;;;;;2.47;0.83;;;5.50;99.90;;;;;;5046453;28;20309;-94
2022/02/06 14:38:36;;;;;;;0.40;0.40;;;5.70;99.90;;;;;;5052795;28;20209;-93
2022/02/06 14:43:42;;;;;;;0.30;0.30;;;6.00;99.90;;;;;;5063819;28;20217;-94
2022/02/06 14:46:08;;;;;;;0.33;0.33;;;6.10;99.90;;;;;;5044050;28;20247;-91
2022/02/06 14:48:34;;;;;;;0.10;0.10;;;6.10;99.90;;;;;;5049648;28;20703;-90
2022/02/06 14:51:01;;;;;;;0.20;0.20;;;6.30;99.90;;;;;;5057612;28;20213;-92
2022/02/06 14:53:27;;;;;;;0.30;0.30;;;6.20;99.90;;;;;;5059340;28;20249;-94
2022/02/06 14:55:56;;;;;;;0.47;0.47;;;6.20;99.90;;;;;;5045369;28;20692;-94
2022/02/06 14:58:23;;;;;;;3.30;0.57;;;6.20;99.90;;;;;;5054092;28;20262;-93
2022/02/06 15:00:49;;;;;;;0.30;0.27;;;6.10;99.90;;;;;;5038834;28;20229;-92
2022/02/06 15:03:17;;;;;;;0.10;0.10;;;5.90;99.90;;;;;;5058882;28;20221;-94
2022/02/06 15:05:43;;;;;;;0.87;0.87;;;5.80;99.90;;;;;;5049080;28;20586;-93
2022/02/06 15:08:10;;;;;;;17.43;0.50;;;5.80;99.90;;;;;;5038605;28;20218;-90
2022/02/06 15:10:36;;;;;;;0.30;0.30;;;5.90;99.90;;;;;;5027461;28;20226;-91
2022/02/06 15:13:09;;;;;;;0.27;0.27;;;5.80;99.90;;;;;;5029865;28;20195;-91
2022/02/06 15:15:46;;;;;;;0.20;0.20;;;5.80;99.90;;;;;;5042741;28;20194;-92
2022/02/06 15:18:23;;;;;;;1.37;1.27;;;5.90;99.90;;;;;;5023254;28;20693;-90
2022/02/06 15:20:51;;;;;;;3.07;0.43;;;5.70;99.90;;;;;;5034806;28;20218;-92
2022/02/06 15:23:17;;;;;;;4.67;0.40;;;5.30;99.90;;;;;;5036453;28;20243;-93
2022/02/06 15:25:43;;;;;;;0.20;0.20;;;5.30;99.90;;;;;;5039030;28;20673;-93
2022/02/06 15:28:09;;;;;;;0.10;0.10;;;5.20;99.90;;;;;;5037093;28;20214;-95
2022/02/06 15:30:36;;;;;;;1.43;0.87;;;5.30;99.90;;;;;;5038988;28;20218;-94
2022/02/06 15:33:06;;;;;;;1.27;1.27;;;5.20;99.90;;;;;;5035760;28;20241;-94
2022/02/06 15:35:34;;;;;;;1.70;0.50;;;5.30;99.90;;;;;;5036607;28;20226;-90
2022/02/06 15:38:02;;;;;;;2.03;0.30;;;5.30;99.90;;;;;;5038031;28;20182;-91
2022/02/06 15:40:32;;;;;;;0.27;0.27;;;5.30;99.90;;;;;;5040683;28;20801;-93
2022/02/06 15:42:58;;;;;;;1.13;0.70;;;5.40;99.90;;;;;;5040471;28;20265;-94
2022/02/06 15:45:24;;;;;;;0.40;0.30;;;5.50;99.90;;;;;;5039164;28;20551;-93
2022/02/06 15:47:50;;;;;;;1.57;1.47;;;5.50;99.90;;;;;;5028542;28;20229;-91
2022/02/06 15:50:16;;;;;;;0.20;0.20;;;5.60;99.90;;;;;;5041047;28;20588;-94
2022/02/06 15:52:41;;;;;;;0.20;0.20;;;5.60;99.90;;;;;;5040842;28;20206;-87
2022/02/06 15:55:08;;;;;;;0.30;0.30;;;5.70;99.90;;;;;;5033141;28;20220;-92
2022/02/06 15:57:34;;;;;;;0.20;0.20;;;5.70;99.90;;;;;;5039540;28;20252;-93
2022/02/06 16:00:00;;;;;;;0.50;0.50;;;5.80;99.90;;;;;;5040583;28;20237;-92
2022/02/06 16:02:28;;;;;;;3.30;2.00;;;5.90;99.90;;;;;;5039510;28;20221;-94